sensor_id;sensor_type;location;lat;lon;timestamp;pressure;altitude;pressure_sealevel;temperature;humidity
77877;BME280;67251;50.844;7.978;2023-06-04T00:01:06;99171.03;;;5.74;74.17
77877;BME280;67251;50.844;7.978;2023-06-04T00:03:31;99162.09;;;5.75;74.44
77877;BME280;67251;50.844;7.978;2023-06-04T00:05:57;99160.41;;;5.74;74.45
77877;BME280;67251;50.844;7.978;2023-06-04T00:08:23;99163.06;;;5.74;74.51
77877;BME280;67251;50.844;7.978;2023-06-04T00:10:48;99162.09;;;5.75;74.31
77877;BME280;67251;50.844;7.978;2023-06-04T00:13:13;99162.25;;;5.65;74.57
77877;BME280;67251;50.844;7.978;2023-06-04T00:15:39;99165.34;;;5.52;74.72
77877;BME280;67251;50.844;7.978;2023-06-04T00:18:05;99162.00;;;5.42;75.36
77877;BME280;67251;50.844;7.978;2023-06-04T00:20:30;99148.53;;;5.35;75.92
77877;BME280;67251;50.844;7.978;2023-06-04T00:22:55;99153.53;;;5.38;77.06
77877;BME280;67251;50.844;7.978;2023-06-04T00:25:21;99146.69;;;5.36;76.34
77877;BME280;67251;50.844;7.978;2023-06-04T00:27:46;99153.97;;;5.26;76.66
77877;BME280;67251;50.844;7.978;2023-06-04T00:30:12;99147.59;;;5.10;77.29
77877;BME280;67251;50.844;7.978;2023-06-04T00:32:38;99150.72;;;5.06;77.28
77877;BME280;67251;50.844;7.978;2023-06-04T00:35:05;99152.19;;;5.00;77.53
77877;BME280;67251;50.844;7.978;2023-06-04T00:37:30;99160.81;;;5.02;77.65
77877;BME280;67251;50.844;7.978;2023-06-04T00:39:55;99159.34;;;5.08;77.38
77877;BME280;67251;50.844;7.978;2023-06-04T00:42:21;99166.94;;;5.03;77.82
77877;BME280;67251;50.844;7.978;2023-06-04T00:44:46;99153.13;;;4.91;77.91
77877;BME280;67251;50.844;7.978;2023-06-04T00:47:13;99164.06;;;4.88;78.38
77877;BME280;67251;50.844;7.978;2023-06-04T00:49:39;99156.44;;;4.85;78.39
77877;BME280;67251;50.844;7.978;2023-06-04T00:52:07;99165.69;;;4.81;78.89
77877;BME280;67251;50.844;7.978;2023-06-04T00:54:33;99163.03;;;4.81;78.92
77877;BME280;67251;50.844;7.978;2023-06-04T00:56:59;99162.34;;;4.79;78.94
77877;BME280;67251;50.844;7.978;2023-06-04T00:59:25;99165.78;;;4.71;79.38
77877;BME280;67251;50.844;7.978;2023-06-04T01:01:56;99166.75;;;4.70;79.42
77877;BME280;67251;50.844;7.978;2023-06-04T01:04:33;99160.97;;;4.75;79.37
77877;BME280;67251;50.844;7.978;2023-06-04T01:07:02;99162.31;;;4.71;79.23
77877;BME280;67251;50.844;7.978;2023-06-04T01:09:28;99170.50;;;4.59;79.60
77877;BME280;67251;50.844;7.978;2023-06-04T01:11:54;99162.19;;;4.54;79.81
77877;BME280;67251;50.844;7.978;2023-06-04T01:14:22;99167.78;;;4.51;80.04
77877;BME280;67251;50.844;7.978;2023-06-04T01:16:55;99166.75;;;4.44;80.33
77877;BME280;67251;50.844;7.978;2023-06-04T01:19:42;99166.69;;;4.36;80.59
77877;BME280;67251;50.844;7.978;2023-06-04T01:25:13;99163.59;;;4.23;81.45
77877;BME280;67251;50.844;7.978;2023-06-04T01:27:46;99170.69;;;4.22;81.62
77877;BME280;67251;50.844;7.978;2023-06-04T01:30:14;99171.97;;;4.18;81.67
77877;BME280;67251;50.844;7.978;2023-06-04T01:32:39;99169.22;;;4.20;81.37
77877;BME280;67251;50.844;7.978;2023-06-04T01:35:11;99173.66;;;4.19;82.00
77877;BME280;67251;50.844;7.978;2023-06-04T01:37:36;99170.03;;;4.20;82.11
77877;BME280;67251;50.844;7.978;2023-06-04T01:40:02;99166.41;;;4.21;82.28
77877;BME280;67251;50.844;7.978;2023-06-04T01:42:27;99170.50;;;4.16;82.16
77877;BME280;67251;50.844;7.978;2023-06-04T01:44:53;99170.94;;;4.11;82.56
77877;BME280;67251;50.844;7.978;2023-06-04T01:47:18;99177.00;;;4.03;82.71
77877;BME280;67251;50.844;7.978;2023-06-04T01:53:12;99174.19;;;3.87;82.93
77877;BME280;67251;50.844;7.978;2023-06-04T01:55:37;99164.28;;;3.89;83.24
77877;BME280;67251;50.844;7.978;2023-06-04T01:58:03;99166.94;;;3.89;83.17
77877;BME280;67251;50.844;7.978;2023-06-04T02:00:28;99172.81;;;3.83;83.39
77877;BME280;67251;50.844;7.978;2023-06-04T02:02:54;99174.78;;;3.81;83.40
77877;BME280;67251;50.844;7.978;2023-06-04T02:05:21;99172.44;;;3.78;83.34
77877;BME280;67251;50.844;7.978;2023-06-04T02:07:46;99175.69;;;3.72;83.73
77877;BME280;67251;50.844;7.978;2023-06-04T02:10:16;99173.78;;;3.64;84.04
77877;BME280;67251;50.844;7.978;2023-06-04T02:13:00;99165.75;;;3.56;84.23
77877;BME280;67251;50.844;7.978;2023-06-04T02:15:29;99174.56;;;3.47;84.32
77877;BME280;67251;50.844;7.978;2023-06-04T02:17:57;99177.81;;;3.41;85.00
77877;BME280;67251;50.844;7.978;2023-06-04T02:20:28;99182.13;;;3.42;85.16
77877;BME280;67251;50.844;7.978;2023-06-04T02:22:56;99177.22;;;3.47;85.22
77877;BME280;67251;50.844;7.978;2023-06-04T02:25:23;99179.69;;;3.58;85.43
77877;BME280;67251;50.844;7.978;2023-06-04T02:27:48;99174.53;;;3.56;84.93
77877;BME280;67251;50.844;7.978;2023-06-04T02:30:14;99174.44;;;3.48;85.67
77877;BME280;67251;50.844;7.978;2023-06-04T02:32:42;99170.88;;;3.40;86.09
77877;BME280;67251;50.844;7.978;2023-06-04T02:35:09;99176.88;;;3.32;86.25
77877;BME280;67251;50.844;7.978;2023-06-04T02:37:35;99173.19;;;3.25;86.31
77877;BME280;67251;50.844;7.978;2023-06-04T02:40:00;99177.59;;;3.34;87.76
77877;BME280;67251;50.844;7.978;2023-06-04T02:42:26;99174.63;;;3.37;87.28
77877;BME280;67251;50.844;7.978;2023-06-04T02:44:51;99173.97;;;3.35;87.29
77877;BME280;67251;50.844;7.978;2023-06-04T02:47:16;99173.66;;;3.38;87.00
77877;BME280;67251;50.844;7.978;2023-06-04T02:49:44;99178.69;;;3.31;86.60
77877;BME280;67251;50.844;7.978;2023-06-04T02:52:10;99173.47;;;3.22;87.02
77877;BME280;67251;50.844;7.978;2023-06-04T02:54:36;99182.41;;;3.11;87.05
77877;BME280;67251;50.844;7.978;2023-06-04T02:57:01;99186.88;;;3.11;87.34
77877;BME280;67251;50.844;7.978;2023-06-04T02:59:26;99184.91;;;3.13;87.16
77877;BME280;67251;50.844;7.978;2023-06-04T03:01:52;99186.56;;;3.14;87.27
77877;BME280;67251;50.844;7.978;2023-06-04T03:04:17;99188.53;;;3.12;87.39
77877;BME280;67251;50.844;7.978;2023-06-04T03:06:43;99187.44;;;3.04;87.67
77877;BME280;67251;50.844;7.978;2023-06-04T03:09:12;99191.09;;;2.94;87.68
77877;BME280;67251;50.844;7.978;2023-06-04T03:11:38;99185.00;;;2.84;88.05
77877;BME280;67251;50.844;7.978;2023-06-04T03:14:03;99191.13;;;2.84;88.36
77877;BME280;67251;50.844;7.978;2023-06-04T03:16:29;99191.13;;;2.84;88.36
77877;BME280;67251;50.844;7.978;2023-06-04T03:18:54;99194.75;;;2.83;89.08
77877;BME280;67251;50.844;7.978;2023-06-04T03:21:20;99198.78;;;2.87;89.85
77877;BME280;67251;50.844;7.978;2023-06-04T03:23:46;99192.50;;;2.88;89.44
77877;BME280;67251;50.844;7.978;2023-06-04T03:26:11;99191.38;;;2.91;89.28
77877;BME280;67251;50.844;7.978;2023-06-04T03:28:39;99192.50;;;2.88;88.93
77877;BME280;67251;50.844;7.978;2023-06-04T03:31:05;99182.06;;;2.87;89.08
77877;BME280;67251;50.844;7.978;2023-06-04T03:33:30;99190.53;;;2.90;88.69
77877;BME280;67251;50.844;7.978;2023-06-04T03:35:56;99184.13;;;3.02;88.52
77877;BME280;67251;50.844;7.978;2023-06-04T03:38:24;99193.22;;;3.18;88.17
77877;BME280;67251;50.844;7.978;2023-06-04T03:40:50;99182.38;;;3.21;87.64
77877;BME280;67251;50.844;7.978;2023-06-04T03:43:18;99183.22;;;3.21;87.56
77877;BME280;67251;50.844;7.978;2023-06-04T03:45:43;99180.41;;;3.23;87.44
77877;BME280;67251;50.844;7.978;2023-06-04T03:48:09;99184.03;;;3.22;87.29
77877;BME280;67251;50.844;7.978;2023-06-04T03:50:34;99185.53;;;3.24;87.06
77877;BME280;67251;50.844;7.978;2023-06-04T03:53:00;99200.28;;;3.27;87.03
77877;BME280;67251;50.844;7.978;2023-06-04T03:55:26;99193.75;;;3.31;86.88
77877;BME280;67251;50.844;7.978;2023-06-04T03:57:51;99181.91;;;3.35;86.81
77877;BME280;67251;50.844;7.978;2023-06-04T04:00:16;99191.88;;;3.41;86.76
77877;BME280;67251;50.844;7.978;2023-06-04T04:02:42;99184.31;;;3.46;86.25
77877;BME280;67251;50.844;7.978;2023-06-04T04:05:08;99184.88;;;3.50;86.05
77877;BME280;67251;50.844;7.978;2023-06-04T04:07:34;99184.72;;;3.51;85.98
77877;BME280;67251;50.844;7.978;2023-06-04T04:10:00;99181.63;;;3.56;86.10
77877;BME280;67251;50.844;7.978;2023-06-04T04:12:25;99185.34;;;3.63;85.60
77877;BME280;67251;50.844;7.978;2023-06-04T04:14:51;99182.94;;;3.70;85.97
77877;BME280;67251;50.844;7.978;2023-06-04T04:17:16;99175.38;;;3.75;85.84
77877;BME280;67251;50.844;7.978;2023-06-04T04:19:42;99175.41;;;4.10;84.93
77877;BME280;67251;50.844;7.978;2023-06-04T04:22:07;99172.28;;;5.45;80.28
77877;BME280;67251;50.844;7.978;2023-06-04T04:24:34;99161.25;;;8.06;71.77
77877;BME280;67251;50.844;7.978;2023-06-04T04:27:02;99156.13;;;10.48;63.90
77877;BME280;67251;50.844;7.978;2023-06-04T04:29:29;99157.25;;;12.32;58.12
77877;BME280;67251;50.844;7.978;2023-06-04T04:31:58;99155.66;;;13.62;53.69
77877;BME280;67251;50.844;7.978;2023-06-04T04:34:26;99151.97;;;14.33;51.52
77877;BME280;67251;50.844;7.978;2023-06-04T04:36:51;99156.13;;;13.97;51.91
77877;BME280;67251;50.844;7.978;2023-06-04T04:39:25;99161.22;;;12.43;55.45
77877;BME280;67251;50.844;7.978;2023-06-04T04:41:51;99165.28;;;10.60;59.84
77877;BME280;67251;50.844;7.978;2023-06-04T04:44:17;99166.13;;;9.31;63.67
77877;BME280;67251;50.844;7.978;2023-06-04T04:46:42;99168.59;;;8.50;66.51
77877;BME280;67251;50.844;7.978;2023-06-04T04:49:08;99171.31;;;7.96;68.38
77877;BME280;67251;50.844;7.978;2023-06-04T04:51:33;99183.19;;;7.54;69.76
77877;BME280;67251;50.844;7.978;2023-06-04T04:53:59;99169.47;;;7.34;70.79
77877;BME280;67251;50.844;7.978;2023-06-04T04:56:28;99170.19;;;7.20;71.41
77877;BME280;67251;50.844;7.978;2023-06-04T04:58:57;99170.88;;;7.14;71.71
77877;BME280;67251;50.844;7.978;2023-06-04T05:01:22;99172.56;;;7.07;71.80
77877;BME280;67251;50.844;7.978;2023-06-04T05:03:49;99178.53;;;7.01;72.21
77877;BME280;67251;50.844;7.978;2023-06-04T05:06:14;99176.75;;;7.01;71.80
77877;BME280;67251;50.844;7.978;2023-06-04T05:08:40;99174.09;;;7.01;72.09
77877;BME280;67251;50.844;7.978;2023-06-04T05:11:06;99181.69;;;7.04;72.40
77877;BME280;67251;50.844;7.978;2023-06-04T05:13:31;99176.06;;;7.07;73.32
77877;BME280;67251;50.844;7.978;2023-06-04T05:15:56;99178.34;;;7.10;72.67
77877;BME280;67251;50.844;7.978;2023-06-04T05:18:23;99189.81;;;7.19;72.85
77877;BME280;67251;50.844;7.978;2023-06-04T05:20:58;99183.63;;;7.27;72.66
77877;BME280;67251;50.844;7.978;2023-06-04T05:23:25;99188.28;;;7.33;72.04
77877;BME280;67251;50.844;7.978;2023-06-04T05:25:51;99183.53;;;7.51;71.67
77877;BME280;67251;50.844;7.978;2023-06-04T05:28:17;99179.81;;;7.68;71.27
77877;BME280;67251;50.844;7.978;2023-06-04T05:30:42;99180.06;;;7.82;71.26
77877;BME280;67251;50.844;7.978;2023-06-04T05:33:09;99191.44;;;7.99;70.93
77877;BME280;67251;50.844;7.978;2023-06-04T05:35:46;99194.56;;;8.10;70.12
77877;BME280;67251;50.844;7.978;2023-06-04T05:38:13;99193.50;;;8.19;69.67
77877;BME280;67251;50.844;7.978;2023-06-04T05:40:45;99191.75;;;8.27;69.48
77877;BME280;67251;50.844;7.978;2023-06-04T05:43:11;99184.84;;;8.40;68.99
77877;BME280;67251;50.844;7.978;2023-06-04T05:45:36;99189.88;;;8.58;68.59
77877;BME280;67251;50.844;7.978;2023-06-04T05:48:02;99187.44;;;8.72;67.64
77877;BME280;67251;50.844;7.978;2023-06-04T05:50:28;99185.81;;;8.85;67.52
77877;BME280;67251;50.844;7.978;2023-06-04T05:52:53;99187.84;;;8.98;67.07
77877;BME280;67251;50.844;7.978;2023-06-04T05:55:19;99190.81;;;9.18;66.66
77877;BME280;67251;50.844;7.978;2023-06-04T05:57:45;99188.78;;;9.35;67.30
77877;BME280;67251;50.844;7.978;2023-06-04T06:00:10;99195.63;;;9.73;65.87
77877;BME280;67251;50.844;7.978;2023-06-04T06:02:36;99191.97;;;12.47;58.47
77877;BME280;67251;50.844;7.978;2023-06-04T06:05:04;99171.34;;;16.80;46.60
77877;BME280;67251;50.844;7.978;2023-06-04T06:07:30;99177.63;;;20.04;39.52
77877;BME280;67251;50.844;7.978;2023-06-04T06:09:56;99165.75;;;22.06;34.96
77877;BME280;67251;50.844;7.978;2023-06-04T06:12:21;99170.69;;;23.73;31.36
77877;BME280;67251;50.844;7.978;2023-06-04T06:14:47;99177.50;;;25.08;29.34
77877;BME280;67251;50.844;7.978;2023-06-04T06:17:13;99175.00;;;26.08;27.45
77877;BME280;67251;50.844;7.978;2023-06-04T06:19:39;99180.88;;;26.90;26.79
77877;BME280;67251;50.844;7.978;2023-06-04T06:22:04;99179.31;;;27.63;25.71
77877;BME280;67251;50.844;7.978;2023-06-04T06:24:30;99177.47;;;28.50;23.47
77877;BME280;67251;50.844;7.978;2023-06-04T06:26:55;99183.09;;;28.31;23.35
77877;BME280;67251;50.844;7.978;2023-06-04T06:29:21;99180.63;;;29.33;22.33
77877;BME280;67251;50.844;7.978;2023-06-04T06:31:46;99183.47;;;28.16;22.61
77877;BME280;67251;50.844;7.978;2023-06-04T06:34:12;99182.88;;;29.31;22.38
77877;BME280;67251;50.844;7.978;2023-06-04T06:36:37;99183.91;;;30.32;21.53
77877;BME280;67251;50.844;7.978;2023-06-04T06:39:03;99179.63;;;31.13;20.43
77877;BME280;67251;50.844;7.978;2023-06-04T06:41:28;99179.56;;;29.91;20.73
77877;BME280;67251;50.844;7.978;2023-06-04T06:43:56;99181.94;;;30.85;20.18
77877;BME280;67251;50.844;7.978;2023-06-04T06:46:21;99185.91;;;31.39;19.66
77877;BME280;67251;50.844;7.978;2023-06-04T06:48:47;99175.88;;;32.23;19.69
77877;BME280;67251;50.844;7.978;2023-06-04T06:51:13;99186.44;;;32.51;18.93
77877;BME280;67251;50.844;7.978;2023-06-04T06:53:39;99178.88;;;32.39;18.15
77877;BME280;67251;50.844;7.978;2023-06-04T06:56:05;99179.59;;;32.69;17.37
77877;BME280;67251;50.844;7.978;2023-06-04T06:58:30;99180.41;;;32.70;17.30
77877;BME280;67251;50.844;7.978;2023-06-04T07:00:56;99173.50;;;33.67;16.55
77877;BME280;67251;50.844;7.978;2023-06-04T07:03:21;99179.09;;;33.21;15.99
77877;BME280;67251;50.844;7.978;2023-06-04T07:05:47;99170.38;;;33.80;16.02
77877;BME280;67251;50.844;7.978;2023-06-04T07:08:13;99175.81;;;34.14;15.32
77877;BME280;67251;50.844;7.978;2023-06-04T07:10:39;99164.13;;;34.61;15.26
77877;BME280;67251;50.844;7.978;2023-06-04T07:13:04;99168.22;;;34.79;14.49
77877;BME280;67251;50.844;7.978;2023-06-04T07:15:30;99163.94;;;34.41;14.74
77877;BME280;67251;50.844;7.978;2023-06-04T07:17:55;99168.41;;;33.93;15.15
77877;BME280;67251;50.844;7.978;2023-06-04T07:20:20;99178.75;;;32.56;15.91
77877;BME280;67251;50.844;7.978;2023-06-04T07:22:46;99171.16;;;33.32;15.77
77877;BME280;67251;50.844;7.978;2023-06-04T07:25:11;99178.94;;;34.12;15.47
77877;BME280;67251;50.844;7.978;2023-06-04T07:27:37;99162.88;;;33.93;15.37
77877;BME280;67251;50.844;7.978;2023-06-04T07:30:02;99157.47;;;34.49;14.60
77877;BME280;67251;50.844;7.978;2023-06-04T07:32:28;99162.53;;;34.60;14.60
77877;BME280;67251;50.844;7.978;2023-06-04T07:34:53;99178.16;;;34.12;14.50
77877;BME280;67251;50.844;7.978;2023-06-04T07:37:19;99171.09;;;34.02;14.17
77877;BME280;67251;50.844;7.978;2023-06-04T07:39:44;99161.94;;;32.32;14.44
77877;BME280;67251;50.844;7.978;2023-06-04T07:42:10;99173.47;;;30.98;14.95
77877;BME280;67251;50.844;7.978;2023-06-04T07:44:36;99175.31;;;31.41;15.74
77877;BME280;67251;50.844;7.978;2023-06-04T07:47:03;99172.47;;;31.20;14.61
77877;BME280;67251;50.844;7.978;2023-06-04T07:49:29;99174.47;;;30.33;15.24
77877;BME280;67251;50.844;7.978;2023-06-04T07:51:54;99175.63;;;30.32;15.69
77877;BME280;67251;50.844;7.978;2023-06-04T07:54:19;99183.41;;;30.65;15.31
77877;BME280;67251;50.844;7.978;2023-06-04T07:56:45;99176.75;;;30.40;15.78
77877;BME280;67251;50.844;7.978;2023-06-04T07:59:11;99183.22;;;29.61;16.02
77877;BME280;67251;50.844;7.978;2023-06-04T08:01:36;99182.13;;;29.70;15.86
77877;BME280;67251;50.844;7.978;2023-06-04T08:04:01;99174.00;;;29.03;16.39
77877;BME280;67251;50.844;7.978;2023-06-04T08:06:27;99178.03;;;29.68;16.06
77877;BME280;67251;50.844;7.978;2023-06-04T08:08:52;99178.69;;;30.22;15.56
77877;BME280;67251;50.844;7.978;2023-06-04T08:11:18;99176.03;;;31.21;15.51
77877;BME280;67251;50.844;7.978;2023-06-04T08:13:43;99177.34;;;32.00;14.55
77877;BME280;67251;50.844;7.978;2023-06-04T08:16:09;99172.97;;;32.20;13.86
77877;BME280;67251;50.844;7.978;2023-06-04T08:18:41;99181.94;;;30.33;14.77
77877;BME280;67251;50.844;7.978;2023-06-04T08:21:10;99181.31;;;27.30;17.89
77877;BME280;67251;50.844;7.978;2023-06-04T08:23:36;99188.31;;;25.95;18.27
77877;BME280;67251;50.844;7.978;2023-06-04T08:26:02;99182.44;;;26.26;18.77
77877;BME280;67251;50.844;7.978;2023-06-04T08:28:27;99176.81;;;28.17;17.15
77877;BME280;67251;50.844;7.978;2023-06-04T08:30:52;99176.19;;;29.94;16.49
77877;BME280;67251;50.844;7.978;2023-06-04T08:33:18;99166.94;;;31.29;15.15
77877;BME280;67251;50.844;7.978;2023-06-04T08:35:43;99178.72;;;29.82;15.34
77877;BME280;67251;50.844;7.978;2023-06-04T08:38:08;99180.72;;;29.90;15.69
77877;BME280;67251;50.844;7.978;2023-06-04T08:40:34;99183.53;;;30.08;15.57
77877;BME280;67251;50.844;7.978;2023-06-04T08:43:00;99173.34;;;30.51;14.33
77877;BME280;67251;50.844;7.978;2023-06-04T08:45:26;99176.59;;;30.36;15.14
77877;BME280;67251;50.844;7.978;2023-06-04T08:47:53;99182.31;;;29.12;16.10
77877;BME280;67251;50.844;7.978;2023-06-04T08:50:20;99198.09;;;29.51;15.71
77877;BME280;67251;50.844;7.978;2023-06-04T08:52:46;99192.25;;;28.54;16.06
77877;BME280;67251;50.844;7.978;2023-06-04T08:55:13;99187.41;;;28.96;16.55
77877;BME280;67251;50.844;7.978;2023-06-04T08:57:40;99179.59;;;29.51;16.07
77877;BME280;67251;50.844;7.978;2023-06-04T09:00:06;99183.41;;;28.88;16.05
77877;BME280;67251;50.844;7.978;2023-06-04T09:02:35;99182.41;;;28.84;16.38
77877;BME280;67251;50.844;7.978;2023-06-04T09:05:02;99178.94;;;28.47;16.92
77877;BME280;67251;50.844;7.978;2023-06-04T09:07:28;99183.06;;;29.35;15.82
77877;BME280;67251;50.844;7.978;2023-06-04T09:09:54;99191.94;;;28.78;16.33
77877;BME280;67251;50.844;7.978;2023-06-04T09:12:24;99188.00;;;28.48;16.44
77877;BME280;67251;50.844;7.978;2023-06-04T09:14:50;99186.38;;;28.69;17.23
77877;BME280;67251;50.844;7.978;2023-06-04T09:17:24;99178.31;;;28.23;17.12
77877;BME280;67251;50.844;7.978;2023-06-04T09:19:51;99185.16;;;28.39;17.84
77877;BME280;67251;50.844;7.978;2023-06-04T09:22:17;99182.91;;;28.41;16.33
77877;BME280;67251;50.844;7.978;2023-06-04T09:24:44;99185.47;;;28.96;16.74
77877;BME280;67251;50.844;7.978;2023-06-04T09:27:19;99185.81;;;28.81;17.15
77877;BME280;67251;50.844;7.978;2023-06-04T09:29:52;99188.63;;;29.43;16.39
77877;BME280;67251;50.844;7.978;2023-06-04T09:32:25;99193.88;;;28.05;16.34
77877;BME280;67251;50.844;7.978;2023-06-04T09:34:52;99194.91;;;25.94;18.01
77877;BME280;67251;50.844;7.978;2023-06-04T09:37:18;99201.88;;;24.70;20.16
77877;BME280;67251;50.844;7.978;2023-06-04T09:39:52;99202.38;;;24.33;20.74
77877;BME280;67251;50.844;7.978;2023-06-04T09:42:18;99191.03;;;25.23;19.57
77877;BME280;67251;50.844;7.978;2023-06-04T09:44:44;99185.94;;;25.65;19.13
77877;BME280;67251;50.844;7.978;2023-06-04T09:47:12;99189.09;;;25.77;19.55
77877;BME280;67251;50.844;7.978;2023-06-04T09:49:49;99190.25;;;25.18;19.70
77877;BME280;67251;50.844;7.978;2023-06-04T09:52:16;99188.06;;;24.46;20.06
77877;BME280;67251;50.844;7.978;2023-06-04T09:54:42;99175.97;;;25.74;19.04
77877;BME280;67251;50.844;7.978;2023-06-04T09:57:18;99176.13;;;27.42;19.41
77877;BME280;67251;50.844;7.978;2023-06-04T09:59:45;99185.31;;;27.93;17.10
77877;BME280;67251;50.844;7.978;2023-06-04T10:02:19;99178.75;;;28.16;17.25
77877;BME280;67251;50.844;7.978;2023-06-04T10:04:49;99178.66;;;28.35;19.72
77877;BME280;67251;50.844;7.978;2023-06-04T10:07:17;99177.53;;;26.93;17.78
77877;BME280;67251;50.844;7.978;2023-06-04T10:09:43;99177.78;;;26.45;18.25
77877;BME280;67251;50.844;7.978;2023-06-04T10:12:13;99187.53;;;27.03;18.49
77877;BME280;67251;50.844;7.978;2023-06-04T10:14:43;99190.72;;;25.78;19.07
77877;BME280;67251;50.844;7.978;2023-06-04T10:17:12;99181.38;;;26.41;18.43
77877;BME280;67251;50.844;7.978;2023-06-04T10:19:40;99176.22;;;26.91;18.37
77877;BME280;67251;50.844;7.978;2023-06-04T10:22:09;99175.13;;;27.52;18.19
77877;BME280;67251;50.844;7.978;2023-06-04T10:24:36;99179.44;;;27.72;18.45
77877;BME280;67251;50.844;7.978;2023-06-04T10:27:03;99171.56;;;27.65;17.72
77877;BME280;67251;50.844;7.978;2023-06-04T10:29:35;99179.28;;;27.22;18.30
77877;BME280;67251;50.844;7.978;2023-06-04T10:32:01;99176.75;;;27.39;18.36
77877;BME280;67251;50.844;7.978;2023-06-04T10:34:27;99178.78;;;26.31;18.66
77877;BME280;67251;50.844;7.978;2023-06-04T10:36:52;99168.53;;;26.74;18.23
77877;BME280;67251;50.844;7.978;2023-06-04T10:39:32;99177.50;;;26.04;19.33
77877;BME280;67251;50.844;7.978;2023-06-04T10:42:05;99172.31;;;26.03;19.43
77877;BME280;67251;50.844;7.978;2023-06-04T10:44:32;99175.09;;;25.26;19.94
77877;BME280;67251;50.844;7.978;2023-06-04T10:46:58;99175.59;;;24.69;20.83
77877;BME280;67251;50.844;7.978;2023-06-04T10:49:28;99170.91;;;24.31;21.58
77877;BME280;67251;50.844;7.978;2023-06-04T10:51:54;99176.44;;;24.99;21.02
77877;BME280;67251;50.844;7.978;2023-06-04T10:54:28;99161.59;;;25.34;19.92
77877;BME280;67251;50.844;7.978;2023-06-04T10:56:53;99163.53;;;25.58;20.69
77877;BME280;67251;50.844;7.978;2023-06-04T10:59:19;99175.53;;;24.80;20.11
77877;BME280;67251;50.844;7.978;2023-06-04T11:01:45;99170.59;;;24.42;21.80
77877;BME280;67251;50.844;7.978;2023-06-04T11:04:25;99163.97;;;24.83;21.58
77877;BME280;67251;50.844;7.978;2023-06-04T11:07:04;99159.03;;;25.19;21.62
77877;BME280;67251;50.844;7.978;2023-06-04T11:09:48;99170.09;;;25.04;20.60
77877;BME280;67251;50.844;7.978;2023-06-04T11:12:14;99171.50;;;23.68;20.75
77877;BME280;67251;50.844;7.978;2023-06-04T11:14:40;99169.34;;;23.50;22.49
77877;BME280;67251;50.844;7.978;2023-06-04T11:17:09;99170.22;;;24.10;21.60
77877;BME280;67251;50.844;7.978;2023-06-04T11:19:36;99160.91;;;24.11;21.09
77877;BME280;67251;50.844;7.978;2023-06-04T11:22:03;99160.00;;;23.76;20.78
77877;BME280;67251;50.844;7.978;2023-06-04T11:24:28;99152.50;;;24.02;20.89
77877;BME280;67251;50.844;7.978;2023-06-04T11:26:56;99165.09;;;23.93;21.02
77877;BME280;67251;50.844;7.978;2023-06-04T11:29:25;99155.13;;;24.62;21.29
77877;BME280;67251;50.844;7.978;2023-06-04T11:31:51;99154.50;;;24.75;20.16
77877;BME280;67251;50.844;7.978;2023-06-04T11:34:26;99148.47;;;24.34;20.09
77877;BME280;67251;50.844;7.978;2023-06-04T11:36:52;99157.25;;;24.31;20.63
77877;BME280;67251;50.844;7.978;2023-06-04T11:39:19;99142.63;;;24.06;20.97
77877;BME280;67251;50.844;7.978;2023-06-04T11:41:45;99147.50;;;24.14;21.15
77877;BME280;67251;50.844;7.978;2023-06-04T11:44:12;99143.56;;;24.70;21.98
77877;BME280;67251;50.844;7.978;2023-06-04T11:46:42;99145.69;;;24.78;20.88
77877;BME280;67251;50.844;7.978;2023-06-04T11:49:11;99154.50;;;24.70;21.83
77877;BME280;67251;50.844;7.978;2023-06-04T11:51:37;99154.31;;;24.17;21.03
77877;BME280;67251;50.844;7.978;2023-06-04T11:54:03;99141.53;;;23.32;21.18
77877;BME280;67251;50.844;7.978;2023-06-04T11:56:28;99137.47;;;23.30;22.60
77877;BME280;67251;50.844;7.978;2023-06-04T11:58:54;99140.75;;;23.21;21.63
77877;BME280;67251;50.844;7.978;2023-06-04T12:01:20;99143.66;;;23.56;22.94
77877;BME280;67251;50.844;7.978;2023-06-04T12:03:45;99142.34;;;24.08;21.41
77877;BME280;67251;50.844;7.978;2023-06-04T12:06:20;99146.22;;;24.02;21.39
77877;BME280;67251;50.844;7.978;2023-06-04T12:08:50;99144.50;;;24.11;21.01
77877;BME280;67251;50.844;7.978;2023-06-04T12:11:33;99138.31;;;24.44;24.80
77877;BME280;67251;50.844;7.978;2023-06-04T12:14:03;99139.59;;;24.86;23.18
77877;BME280;67251;50.844;7.978;2023-06-04T12:16:29;99140.00;;;25.04;21.18
77877;BME280;67251;50.844;7.978;2023-06-04T12:19:08;99123.72;;;25.41;23.24
77877;BME280;67251;50.844;7.978;2023-06-04T12:21:34;99128.81;;;25.72;19.81
77877;BME280;67251;50.844;7.978;2023-06-04T12:24:09;99135.56;;;25.13;19.66
77877;BME280;67251;50.844;7.978;2023-06-04T12:26:36;99136.63;;;24.83;20.79
77877;BME280;67251;50.844;7.978;2023-06-04T12:29:13;99137.63;;;24.63;20.80
77877;BME280;67251;50.844;7.978;2023-06-04T12:31:43;99139.16;;;24.74;20.83
77877;BME280;67251;50.844;7.978;2023-06-04T12:34:11;99127.25;;;24.89;19.83
77877;BME280;67251;50.844;7.978;2023-06-04T12:36:37;99126.63;;;24.68;20.29
77877;BME280;67251;50.844;7.978;2023-06-04T12:39:04;99127.19;;;24.65;20.46
77877;BME280;67251;50.844;7.978;2023-06-04T12:41:33;99125.41;;;24.84;20.15
77877;BME280;67251;50.844;7.978;2023-06-04T12:44:00;99128.03;;;24.94;20.70
77877;BME280;67251;50.844;7.978;2023-06-04T12:46:26;99122.47;;;24.76;19.94
77877;BME280;67251;50.844;7.978;2023-06-04T12:48:53;99121.47;;;24.22;20.85
77877;BME280;67251;50.844;7.978;2023-06-04T12:51:19;99124.88;;;24.04;21.71
77877;BME280;67251;50.844;7.978;2023-06-04T12:53:46;99128.25;;;23.90;20.25
77877;BME280;67251;50.844;7.978;2023-06-04T12:56:11;99124.06;;;23.33;21.14
77877;BME280;67251;50.844;7.978;2023-06-04T12:58:37;99122.59;;;23.71;23.70
77877;BME280;67251;50.844;7.978;2023-06-04T13:01:02;99126.78;;;24.03;21.89
77877;BME280;67251;50.844;7.978;2023-06-04T13:03:30;99126.19;;;24.11;20.64
77877;BME280;67251;50.844;7.978;2023-06-04T13:05:56;99130.81;;;24.16;21.46
77877;BME280;67251;50.844;7.978;2023-06-04T13:08:22;99121.22;;;24.23;20.82
77877;BME280;67251;50.844;7.978;2023-06-04T13:10:48;99113.19;;;24.32;20.71